Attica, Kansas
Current Conditions -  °F | °C
As of 6:15 AM on Sunday 23 Nov 2014 (Local Time) from KAVK Reporting Station
Overcast Overcast  
Wind Chill: 50°   Ceiling: 1900
Heat Index: 50°   Visibility: 10mi
Dew Point: 50°   Wind: 10mph
Humidity: 100%   Direction: 170°S
Pressure: 29.44"   Gusts: NA
Location:  37.24°N, 98.23°W
Report Text: KAVK 231215Z AUTO 17009KT 10SM OVC019 10/10 A2944 RMK AO2
Loading
Personal Weather Stations






























Interactive Weather Map New forecast layout! Learn more

10-Day Weather Forecast

Advertisements
Track Severe Weather on mobile